createdAt,value
2022-09-14T00:01:14.403Z,14.82
2022-09-14T00:05:18.126Z,15.45
2022-09-14T00:09:23.310Z,15.88
2022-09-14T00:13:58.041Z,14.63
2022-09-14T00:18:01.055Z,15.68
2022-09-14T00:22:06.756Z,16.83
2022-09-14T00:26:12.551Z,15.77
2022-09-14T00:30:15.671Z,13.90
2022-09-14T00:34:19.175Z,14.05
2022-09-14T00:38:23.642Z,13.65
2022-09-14T00:42:26.664Z,11.27
2022-09-14T00:46:31.720Z,13.32
2022-09-14T00:51:05.621Z,12.13
2022-09-14T00:55:13.003Z,11.73
2022-09-14T00:59:20.339Z,11.27
2022-09-14T01:03:23.726Z,11.15
2022-09-14T01:08:02.201Z,10.77
2022-09-14T01:12:18.286Z,9.02
2022-09-14T01:16:30.516Z,11.13
2022-09-14T01:20:38.941Z,12.07
2022-09-14T01:25:15.365Z,10.40
2022-09-14T01:29:26.290Z,11.45
2022-09-14T01:33:33.680Z,11.32
2022-09-14T01:37:42.582Z,11.52
2022-09-14T01:41:47.641Z,12.07
2022-09-14T01:46:26.046Z,13.07
2022-09-14T01:50:35.891Z,13.48
2022-09-14T01:54:43.661Z,15.55
2022-09-14T01:58:50.162Z,15.95
2022-09-14T02:02:58.193Z,15.65
2022-09-14T02:07:01.362Z,15.95
2022-09-14T02:11:04.546Z,15.27
2022-09-14T02:15:41.449Z,14.70
2022-09-14T02:19:51.201Z,14.55
2022-09-14T02:23:55.253Z,16.88
2022-09-14T02:27:58.354Z,16.92
2022-09-14T02:32:11.326Z,17.45
2022-09-14T02:36:23.673Z,16.38
2022-09-14T02:40:33.825Z,15.80
2022-09-14T02:45:05.425Z,16.63
2022-09-14T02:49:17.369Z,16.13
2022-09-14T02:53:28.373Z,15.73
2022-09-14T02:57:31.487Z,14.73
2022-09-14T03:01:34.903Z,14.77
2022-09-14T03:06:08.957Z,15.13
2022-09-14T03:10:13.365Z,16.05
2022-09-14T03:14:16.372Z,16.05
2022-09-14T03:18:19.816Z,14.93
2022-09-14T03:22:53.501Z,14.68
2022-09-14T03:26:57.926Z,13.50
2022-09-14T03:31:02.785Z,13.50
2022-09-14T03:35:06.850Z,12.85
2022-09-14T03:39:40.682Z,14.45
2022-09-14T03:43:45.921Z,13.20
2022-09-14T03:47:49.419Z,16.58
2022-09-14T03:51:55.324Z,14.98
2022-09-14T03:56:27.354Z,14.15
2022-09-14T04:00:32.356Z,13.13
2022-09-14T04:04:35.404Z,14.90
2022-09-14T04:08:41.380Z,14.52
2022-09-14T04:12:44.418Z,15.05
2022-09-14T04:16:48.961Z,14.15
2022-09-14T04:20:56.484Z,14.30
2022-09-14T04:24:59.594Z,12.82
2022-09-14T04:29:02.856Z,14.40
2022-09-14T04:33:07.374Z,12.82
2022-09-14T04:37:10.430Z,14.18
2022-09-14T04:41:47.212Z,13.48
2022-09-14T04:45:50.267Z,13.82
2022-09-14T04:49:54.758Z,12.45
2022-09-14T04:53:59.448Z,12.05
2022-09-14T04:58:02.787Z,12.80
2022-09-14T05:02:06.081Z,12.60
2022-09-14T05:06:12.562Z,12.48
2022-09-14T05:10:15.749Z,13.43
2022-09-14T05:14:19.200Z,15.13
2022-09-14T05:18:22.280Z,14.95
2022-09-14T05:23:00.445Z,14.93
2022-09-14T05:27:03.529Z,16.25
2022-09-14T05:31:08.220Z,17.60
2022-09-14T05:35:11.390Z,17.17
2022-09-14T05:39:47.032Z,15.23
2022-09-14T05:43:50.141Z,16.17
2022-09-14T05:47:53.356Z,16.23
2022-09-14T05:51:56.417Z,16.00
2022-09-14T05:56:35.170Z,13.65
2022-09-14T06:00:39.558Z,15.18
2022-09-14T06:04:42.781Z,13.43
2022-09-14T06:09:19.602Z,13.50
2022-09-14T06:13:24.432Z,14.55
2022-09-14T06:17:27.792Z,12.13
2022-09-14T06:21:32.464Z,13.55
2022-09-14T06:25:35.463Z,14.43
2022-09-14T06:29:39.931Z,13.95
2022-09-14T06:33:45.733Z,14.13
2022-09-14T06:38:19.529Z,15.18
2022-09-14T06:42:22.515Z,12.52
2022-09-14T06:46:29.360Z,11.82
2022-09-14T06:50:32.195Z,11.55
2022-09-14T06:54:35.382Z,10.52
2022-09-14T06:58:38.482Z,9.70
2022-09-14T07:02:42.681Z,8.02
2022-09-14T07:06:46.910Z,6.95
2022-09-14T07:10:57.209Z,7.82
2022-09-14T07:15:00.119Z,6.40
2022-09-14T07:19:07.062Z,6.55
2022-09-14T07:23:38.502Z,6.93
2022-09-14T07:27:41.297Z,6.72
2022-09-14T07:31:45.952Z,6.47
2022-09-14T07:36:20.993Z,6.40
2022-09-14T07:40:24.005Z,5.93
2022-09-14T07:44:27.249Z,7.32
2022-09-14T07:48:30.043Z,6.93
2022-09-14T07:52:38.562Z,7.88
2022-09-14T07:56:42.739Z,7.50
2022-09-14T08:00:45.721Z,8.25
2022-09-14T08:04:48.797Z,7.90
2022-09-14T08:09:27.853Z,8.50
2022-09-14T08:13:30.921Z,8.73
2022-09-14T08:17:33.784Z,9.18
2022-09-14T08:22:10.366Z,9.30
2022-09-14T08:26:16.951Z,9.70
2022-09-14T08:30:19.919Z,9.27
2022-09-14T08:34:56.928Z,11.48
2022-09-14T08:39:01.281Z,11.77
2022-09-14T08:43:05.889Z,13.13
2022-09-14T08:47:13.629Z,12.98
2022-09-14T08:51:18.132Z,12.45
2022-09-14T08:55:54.853Z,11.63
2022-09-14T09:00:08.220Z,12.57
2022-09-14T09:04:27.368Z,13.25
2022-09-14T09:08:35.997Z,12.52
2022-09-14T09:12:43.140Z,11.75
2022-09-14T09:16:50.587Z,12.60
2022-09-14T09:21:22.606Z,11.02
2022-09-14T09:25:31.634Z,11.98
2022-09-14T09:29:34.481Z,11.73
2022-09-14T09:33:38.706Z,11.73
2022-09-14T09:37:42.191Z,13.07
2022-09-14T09:41:48.583Z,13.57
2022-09-14T09:45:55.785Z,15.38
2022-09-14T09:50:02.150Z,16.35
2022-09-14T09:54:10.291Z,16.75
2022-09-14T09:58:28.209Z,17.17
2022-09-14T10:02:32.711Z,12.98
2022-09-14T10:07:20.775Z,10.63
2022-09-14T10:11:31.369Z,9.57
2022-09-14T10:15:36.573Z,8.30
2022-09-14T10:20:21.438Z,7.72
2022-09-14T10:24:25.665Z,6.63
2022-09-14T10:28:30.155Z,6.78
2022-09-14T10:32:34.620Z,5.95
2022-09-14T10:37:13.888Z,5.30
2022-09-14T10:41:31.082Z,6.03
2022-09-14T10:45:37.092Z,4.75
2022-09-14T10:50:21.892Z,4.35
2022-09-14T10:54:45.306Z,5.32
2022-09-14T10:59:06.873Z,4.93
2022-09-14T11:03:28.651Z,4.82
2022-09-14T11:07:38.957Z,4.68
2022-09-14T11:11:53.621Z,3.78
2022-09-14T11:16:03.214Z,4.18
2022-09-14T11:20:18.439Z,3.60
2022-09-14T11:24:45.087Z,3.70
2022-09-14T11:28:53.999Z,3.13
2022-09-14T11:33:31.192Z,2.97
2022-09-14T11:37:41.159Z,3.22
2022-09-14T11:41:49.352Z,2.90
2022-09-14T11:45:56.200Z,2.83
2022-09-14T11:50:06.413Z,2.80
2022-09-14T11:54:26.262Z,2.65
2022-09-14T11:58:30.930Z,3.08
2022-09-14T12:03:02.698Z,2.78
2022-09-14T12:07:06.908Z,2.78
2022-09-14T12:11:40.370Z,3.00
2022-09-14T12:15:45.078Z,2.83
2022-09-14T12:19:50.267Z,2.50
2022-09-14T12:23:57.863Z,2.75
2022-09-14T12:28:01.194Z,2.40
2022-09-14T12:32:07.152Z,2.40
2022-09-14T12:36:11.115Z,2.85
2022-09-14T12:40:46.245Z,2.53
2022-09-14T12:44:49.102Z,2.90
2022-09-14T12:49:02.766Z,2.65
2022-09-14T12:53:34.922Z,2.67
2022-09-14T12:57:47.203Z,2.50
2022-09-14T13:01:58.465Z,2.85
2022-09-14T13:06:34.758Z,2.88
2022-09-14T13:10:40.773Z,2.90
2022-09-14T13:14:50.124Z,2.60
2022-09-14T13:24:31.301Z,2.58
2022-09-14T13:28:34.461Z,2.78
2022-09-14T13:33:16.793Z,2.67
2022-09-14T13:37:21.434Z,2.75
2022-09-14T13:41:24.923Z,2.80
2022-09-14T13:45:28.194Z,2.75
2022-09-14T13:50:07.719Z,2.60
2022-09-14T13:54:29.477Z,2.83
2022-09-14T13:58:35.580Z,2.72
2022-09-14T14:02:40.961Z,3.00
2022-09-14T14:07:00.543Z,2.92
2022-09-14T14:11:05.806Z,3.00
2022-09-14T14:15:37.664Z,2.70
2022-09-14T14:19:41.419Z,2.97
2022-09-14T14:24:02.826Z,2.85
2022-09-14T14:28:17.483Z,2.83
2022-09-14T14:32:45.043Z,2.85
2022-09-14T14:36:50.022Z,2.65
2022-09-14T14:40:57.399Z,2.83
2022-09-14T14:45:01.717Z,2.95
2022-09-14T14:49:04.742Z,3.30
2022-09-14T14:53:07.950Z,2.78
2022-09-14T14:57:45.783Z,3.05
2022-09-14T15:01:49.102Z,3.08
2022-09-14T15:05:52.118Z,2.72
2022-09-14T15:10:29.191Z,2.85
2022-09-14T15:14:33.657Z,2.80
2022-09-14T15:18:36.444Z,3.10
2022-09-14T15:23:14.127Z,3.10
2022-09-14T15:27:16.950Z,3.10
2022-09-14T15:31:21.333Z,3.00
2022-09-14T15:35:58.372Z,2.97
2022-09-14T15:40:01.332Z,3.70
2022-09-14T15:44:04.818Z,4.15
2022-09-14T15:48:08.982Z,3.85
2022-09-14T15:52:43.191Z,3.80
2022-09-14T15:56:49.546Z,5.03
2022-09-14T16:00:52.498Z,1.88
2022-09-14T16:05:27.872Z,2.13
2022-09-14T16:09:30.682Z,2.40
2022-09-14T16:13:34.200Z,1.23
2022-09-14T16:17:37.118Z,1.40
2022-09-14T16:21:42.627Z,1.60
2022-09-14T16:25:45.503Z,2.00
2022-09-14T16:29:48.547Z,1.80
2022-09-14T16:34:26.578Z,1.63
2022-09-14T16:38:32.238Z,1.85
2022-09-14T16:42:35.076Z,1.80
2022-09-14T16:46:37.862Z,1.63
2022-09-14T16:51:15.774Z,1.98
2022-09-14T16:55:20.177Z,1.88
2022-09-14T16:59:23.425Z,2.00
2022-09-14T17:03:31.672Z,1.60
2022-09-14T17:08:02.709Z,1.65
2022-09-14T17:12:07.558Z,1.70
2022-09-14T17:16:12.640Z,1.77
2022-09-14T17:20:34.282Z,1.92
2022-09-14T17:24:37.309Z,1.65
2022-09-14T17:28:44.507Z,1.60
2022-09-14T17:32:47.648Z,1.70
2022-09-14T17:36:50.686Z,1.85
2022-09-14T17:40:54.201Z,2.22
2022-09-14T17:44:58.584Z,2.15
2022-09-14T17:49:32.064Z,1.80
2022-09-14T17:53:38.530Z,2.00
2022-09-14T17:57:41.880Z,1.98
2022-09-14T18:02:15.343Z,2.03
2022-09-14T18:06:20.272Z,2.33
2022-09-14T18:10:23.368Z,2.10
2022-09-14T18:14:26.984Z,2.05
2022-09-14T18:18:30.087Z,1.77
2022-09-14T18:22:34.562Z,1.80
2022-09-14T18:26:38.546Z,2.97
2022-09-14T18:31:16.751Z,2.13
2022-09-14T18:35:19.794Z,3.10
2022-09-14T18:39:24.194Z,2.72
2022-09-14T18:43:27.212Z,3.22
2022-09-14T18:48:03.977Z,2.83
2022-09-14T18:52:07.482Z,3.38
2022-09-14T18:56:13.544Z,3.15
2022-09-14T19:00:47.534Z,3.72
2022-09-14T19:04:51.291Z,3.33
2022-09-14T19:08:54.430Z,3.28
2022-09-14T19:13:32.902Z,3.25
2022-09-14T19:17:35.942Z,3.67
2022-09-14T19:21:39.125Z,3.80
2022-09-14T19:25:44.436Z,4.15
2022-09-14T19:29:48.793Z,3.78
2022-09-14T19:33:52.438Z,4.32
2022-09-14T19:38:30.191Z,3.75
2022-09-14T19:42:33.247Z,3.60
2022-09-14T19:46:39.673Z,3.63
2022-09-14T19:50:43.136Z,4.10
2022-09-14T19:55:20.193Z,3.70
2022-09-14T19:59:23.387Z,3.65
2022-09-14T20:03:27.805Z,3.15
2022-09-14T20:07:30.939Z,3.35
2022-09-14T20:11:35.595Z,3.08
2022-09-14T20:15:38.751Z,3.58
2022-09-14T20:19:43.210Z,2.92
2022-09-14T20:24:19.299Z,3.50
2022-09-14T20:28:27.207Z,4.35
2022-09-14T20:32:31.197Z,3.22
2022-09-14T20:37:06.730Z,3.78
2022-09-14T20:41:11.291Z,3.55
2022-09-14T20:45:15.335Z,3.45
2022-09-14T20:49:20.859Z,3.50
2022-09-14T20:53:56.380Z,3.53
2022-09-14T20:58:00.786Z,3.35
2022-09-14T21:02:05.662Z,3.58
2022-09-14T21:06:10.722Z,3.08
2022-09-14T21:10:44.254Z,3.28
2022-09-14T21:14:48.784Z,3.40
2022-09-14T21:18:55.572Z,3.22
2022-09-14T21:23:29.611Z,3.45
2022-09-14T21:27:32.655Z,2.83
2022-09-14T21:31:39.154Z,2.85
2022-09-14T21:36:11.962Z,2.45
2022-09-14T21:40:15.388Z,2.95
2022-09-14T21:44:18.521Z,2.70
2022-09-14T21:48:22.933Z,2.80
2022-09-14T21:52:25.989Z,2.63
2022-09-14T21:57:03.024Z,2.47
2022-09-14T22:01:06.398Z,2.63
2022-09-14T22:05:12.059Z,2.75
2022-09-14T22:09:16.900Z,2.65
2022-09-14T22:13:50.563Z,2.50
2022-09-14T22:17:53.658Z,2.60
2022-09-14T22:21:58.500Z,3.10
2022-09-14T22:26:05.617Z,2.78
2022-09-14T22:30:44.793Z,2.85
2022-09-14T22:34:49.881Z,3.20
2022-09-14T22:38:56.698Z,2.15
2022-09-14T22:43:00.139Z,2.53
2022-09-14T22:47:03.173Z,2.50
2022-09-14T22:51:08.089Z,2.67
2022-09-14T22:55:44.832Z,3.00
2022-09-14T22:59:47.837Z,3.30
2022-09-14T23:03:55.908Z,3.00
2022-09-14T23:07:59.206Z,3.45
2022-09-14T23:12:38.013Z,3.22
2022-09-14T23:16:41.241Z,3.05
2022-09-14T23:20:46.090Z,2.97
2022-09-14T23:24:49.217Z,2.80
2022-09-14T23:28:55.466Z,2.53
2022-09-14T23:32:59.117Z,2.78
2022-09-14T23:37:02.287Z,2.83
2022-09-14T23:41:05.441Z,3.33
2022-09-14T23:45:11.141Z,2.58
2022-09-14T23:49:14.958Z,3.35
2022-09-14T23:53:18.117Z,3.88
2022-09-14T23:57:21.274Z,4.03
